sensor_id;sensor_type;location;lat;lon;timestamp;P1;durP1;ratioP1;P2;durP2;ratioP2
21550;SDS011;10936;49.836;7.078;2022-11-15T06:00:23;2.70;;;2.50;;
21550;SDS011;10936;49.836;7.078;2022-11-15T06:02:49;2.80;;;2.33;;
21550;SDS011;10936;49.836;7.078;2022-11-15T06:05:14;3.37;;;2.90;;
21550;SDS011;10936;49.836;7.078;2022-11-15T06:07:40;3.30;;;2.93;;
21550;SDS011;10936;49.836;7.078;2022-11-15T06:10:05;3.20;;;2.50;;
21550;SDS011;10936;49.836;7.078;2022-11-15T06:12:31;2.73;;;2.53;;
21550;SDS011;10936;49.836;7.078;2022-11-15T06:14:57;2.83;;;2.50;;
21550;SDS011;10936;49.836;7.078;2022-11-15T06:17:22;3.40;;;2.70;;
21550;SDS011;10936;49.836;7.078;2022-11-15T06:19:48;3.03;;;2.73;;
21550;SDS011;10936;49.836;7.078;2022-11-15T06:22:14;2.93;;;2.47;;
21550;SDS011;10936;49.836;7.078;2022-11-15T06:24:39;2.60;;;2.40;;
21550;SDS011;10936;49.836;7.078;2022-11-15T06:27:05;3.17;;;2.50;;
21550;SDS011;10936;49.836;7.078;2022-11-15T06:29:30;3.27;;;2.60;;
21550;SDS011;10936;49.836;7.078;2022-11-15T06:31:56;3.37;;;2.70;;
21550;SDS011;10936;49.836;7.078;2022-11-15T06:34:21;2.53;;;2.33;;
21550;SDS011;10936;49.836;7.078;2022-11-15T06:36:47;2.53;;;2.33;;
21550;SDS011;10936;49.836;7.078;2022-11-15T06:39:12;2.70;;;2.50;;
21550;SDS011;10936;49.836;7.078;2022-11-15T06:41:38;2.83;;;2.60;;
21550;SDS011;10936;49.836;7.078;2022-11-15T06:44:03;2.67;;;2.47;;
21550;SDS011;10936;49.836;7.078;2022-11-15T06:46:29;2.60;;;2.40;;
21550;SDS011;10936;49.836;7.078;2022-11-15T06:48:54;4.23;;;2.50;;
21550;SDS011;10936;49.836;7.078;2022-11-15T06:51:20;2.70;;;2.50;;
21550;SDS011;10936;49.836;7.078;2022-11-15T06:53:46;2.53;;;2.33;;
21550;SDS011;10936;49.836;7.078;2022-11-15T06:56:11;3.20;;;2.40;;
21550;SDS011;10936;49.836;7.078;2022-11-15T06:58:37;3.47;;;2.77;;
21550;SDS011;10936;49.836;7.078;2022-11-15T07:01:05;5.10;;;2.73;;
21550;SDS011;10936;49.836;7.078;2022-11-15T07:03:34;4.43;;;2.70;;
21550;SDS011;10936;49.836;7.078;2022-11-15T07:06:01;3.00;;;2.70;;
21550;SDS011;10936;49.836;7.078;2022-11-15T07:08:27;6.20;;;2.97;;
21550;SDS011;10936;49.836;7.078;2022-11-15T07:10:53;5.93;;;3.10;;
21550;SDS011;10936;49.836;7.078;2022-11-15T07:13:19;5.80;;;2.77;;
21550;SDS011;10936;49.836;7.078;2022-11-15T07:15:45;5.07;;;2.90;;
21550;SDS011;10936;49.836;7.078;2022-11-15T07:18:10;4.67;;;3.07;;
21550;SDS011;10936;49.836;7.078;2022-11-15T07:20:36;6.77;;;2.80;;
21550;SDS011;10936;49.836;7.078;2022-11-15T07:23:02;6.77;;;3.07;;
21550;SDS011;10936;49.836;7.078;2022-11-15T07:25:29;6.10;;;2.70;;
21550;SDS011;10936;49.836;7.078;2022-11-15T07:27:56;6.50;;;3.27;;
21550;SDS011;10936;49.836;7.078;2022-11-15T07:30:22;5.33;;;2.90;;
21550;SDS011;10936;49.836;7.078;2022-11-15T07:32:55;3.30;;;2.67;;
21550;SDS011;10936;49.836;7.078;2022-11-15T07:35:21;7.37;;;2.80;;
21550;SDS011;10936;49.836;7.078;2022-11-15T07:37:54;4.50;;;2.87;;
21550;SDS011;10936;49.836;7.078;2022-11-15T07:40:20;6.87;;;2.83;;
21550;SDS011;10936;49.836;7.078;2022-11-15T07:42:45;8.70;;;3.50;;
21550;SDS011;10936;49.836;7.078;2022-11-15T07:45:17;5.30;;;2.70;;
21550;SDS011;10936;49.836;7.078;2022-11-15T07:47:46;6.27;;;3.10;;
21550;SDS011;10936;49.836;7.078;2022-11-15T07:50:13;7.33;;;2.90;;
21550;SDS011;10936;49.836;7.078;2022-11-15T07:52:38;5.33;;;2.80;;
21550;SDS011;10936;49.836;7.078;2022-11-15T07:55:04;6.17;;;2.87;;
21550;SDS011;10936;49.836;7.078;2022-11-15T07:57:30;7.47;;;2.93;;
21550;SDS011;10936;49.836;7.078;2022-11-15T07:59:56;5.33;;;2.87;;
21550;SDS011;10936;49.836;7.078;2022-11-15T08:02:21;4.97;;;2.80;;
21550;SDS011;10936;49.836;7.078;2022-11-15T08:04:47;5.57;;;3.07;;
21550;SDS011;10936;49.836;7.078;2022-11-15T08:07:12;4.63;;;2.97;;
21550;SDS011;10936;49.836;7.078;2022-11-15T08:09:38;4.10;;;2.40;;
21550;SDS011;10936;49.836;7.078;2022-11-15T08:12:04;4.90;;;2.30;;
21550;SDS011;10936;49.836;7.078;2022-11-15T08:14:30;4.67;;;2.60;;
21550;SDS011;10936;49.836;7.078;2022-11-15T08:16:56;5.73;;;2.90;;
21550;SDS011;10936;49.836;7.078;2022-11-15T08:19:21;5.33;;;2.60;;
21550;SDS011;10936;49.836;7.078;2022-11-15T08:21:47;5.00;;;2.33;;
21550;SDS011;10936;49.836;7.078;2022-11-15T08:24:13;4.33;;;2.50;;
21550;SDS011;10936;49.836;7.078;2022-11-15T08:26:39;6.30;;;2.73;;
21550;SDS011;10936;49.836;7.078;2022-11-15T08:29:05;3.63;;;2.53;;
21550;SDS011;10936;49.836;7.078;2022-11-15T08:31:33;4.27;;;2.70;;
21550;SDS011;10936;49.836;7.078;2022-11-15T08:34:00;3.27;;;2.70;;
21550;SDS011;10936;49.836;7.078;2022-11-15T08:36:25;4.27;;;2.70;;
21550;SDS011;10936;49.836;7.078;2022-11-15T08:38:51;4.47;;;2.53;;
21550;SDS011;10936;49.836;7.078;2022-11-15T08:41:19;4.27;;;2.57;;
21550;SDS011;10936;49.836;7.078;2022-11-15T08:43:56;5.73;;;3.07;;
21550;SDS011;10936;49.836;7.078;2022-11-15T08:46:22;4.40;;;2.47;;
21550;SDS011;10936;49.836;7.078;2022-11-15T08:48:47;3.67;;;2.37;;
21550;SDS011;10936;49.836;7.078;2022-11-15T08:51:13;4.30;;;2.50;;
21550;SDS011;10936;49.836;7.078;2022-11-15T08:53:39;4.23;;;2.70;;
21550;SDS011;10936;49.836;7.078;2022-11-15T08:56:08;3.37;;;2.50;;
21550;SDS011;10936;49.836;7.078;2022-11-15T08:58:35;3.80;;;2.33;;
21550;SDS011;10936;49.836;7.078;2022-11-15T09:01:02;4.53;;;2.90;;
21550;SDS011;10936;49.836;7.078;2022-11-15T09:03:29;4.20;;;2.77;;
21550;SDS011;10936;49.836;7.078;2022-11-15T09:05:55;5.40;;;2.60;;
21550;SDS011;10936;49.836;7.078;2022-11-15T09:08:25;3.50;;;2.70;;
21550;SDS011;10936;49.836;7.078;2022-11-15T09:10:54;6.93;;;2.70;;
21550;SDS011;10936;49.836;7.078;2022-11-15T09:13:19;3.83;;;2.30;;
21550;SDS011;10936;49.836;7.078;2022-11-15T09:15:45;5.73;;;2.50;;
21550;SDS011;10936;49.836;7.078;2022-11-15T09:18:10;4.77;;;2.50;;
21550;SDS011;10936;49.836;7.078;2022-11-15T09:20:36;5.27;;;2.47;;
21550;SDS011;10936;49.836;7.078;2022-11-15T09:23:02;3.33;;;2.40;;
21550;SDS011;10936;49.836;7.078;2022-11-15T09:25:29;3.57;;;2.40;;
21550;SDS011;10936;49.836;7.078;2022-11-15T09:27:55;3.57;;;2.40;;
21550;SDS011;10936;49.836;7.078;2022-11-15T09:30:21;2.93;;;2.17;;
21550;SDS011;10936;49.836;7.078;2022-11-15T09:32:48;3.57;;;2.27;;
21550;SDS011;10936;49.836;7.078;2022-11-15T09:35:13;3.70;;;2.63;;
21550;SDS011;10936;49.836;7.078;2022-11-15T09:37:39;2.93;;;2.40;;
21550;SDS011;10936;49.836;7.078;2022-11-15T09:40:04;3.60;;;2.20;;
21550;SDS011;10936;49.836;7.078;2022-11-15T09:42:44;3.40;;;2.30;;
21550;SDS011;10936;49.836;7.078;2022-11-15T09:47:49;5.10;;;2.30;;
21550;SDS011;10936;49.836;7.078;2022-11-15T09:50:28;3.53;;;2.40;;
21550;SDS011;10936;49.836;7.078;2022-11-15T09:53:01;3.00;;;2.20;;
21550;SDS011;10936;49.836;7.078;2022-11-15T09:55:32;5.00;;;2.43;;
21550;SDS011;10936;49.836;7.078;2022-11-15T09:58:21;2.73;;;2.30;;
21550;SDS011;10936;49.836;7.078;2022-11-15T10:00:48;3.13;;;2.20;;
21550;SDS011;10936;49.836;7.078;2022-11-15T10:03:26;2.60;;;2.30;;
21550;SDS011;10936;49.836;7.078;2022-11-15T10:05:57;3.70;;;2.53;;
21550;SDS011;10936;49.836;7.078;2022-11-15T10:11:05;3.00;;;2.03;;
21550;SDS011;10936;49.836;7.078;2022-11-15T10:13:35;3.53;;;2.27;;
21550;SDS011;10936;49.836;7.078;2022-11-15T10:19:01;3.27;;;2.30;;
21550;SDS011;10936;49.836;7.078;2022-11-15T10:24:35;3.47;;;2.30;;
21550;SDS011;10936;49.836;7.078;2022-11-15T10:27:10;2.40;;;2.00;;
21550;SDS011;10936;49.836;7.078;2022-11-15T10:29:42;3.47;;;2.13;;
21550;SDS011;10936;49.836;7.078;2022-11-15T10:32:10;3.03;;;2.20;;
21550;SDS011;10936;49.836;7.078;2022-11-15T10:34:37;3.40;;;2.20;;
21550;SDS011;10936;49.836;7.078;2022-11-15T10:37:03;2.87;;;2.37;;
21550;SDS011;10936;49.836;7.078;2022-11-15T10:39:28;2.37;;;2.00;;
21550;SDS011;10936;49.836;7.078;2022-11-15T10:41:54;2.60;;;2.10;;
21550;SDS011;10936;49.836;7.078;2022-11-15T10:44:24;2.73;;;2.00;;
21550;SDS011;10936;49.836;7.078;2022-11-15T10:49:26;3.00;;;2.00;;
21550;SDS011;10936;49.836;7.078;2022-11-15T10:54:28;2.97;;;2.37;;
21550;SDS011;10936;49.836;7.078;2022-11-15T10:57:00;3.53;;;2.17;;
21550;SDS011;10936;49.836;7.078;2022-11-15T10:59:36;3.27;;;2.23;;
21550;SDS011;10936;49.836;7.078;2022-11-15T11:02:22;2.90;;;1.80;;
21550;SDS011;10936;49.836;7.078;2022-11-15T11:04:51;3.00;;;2.40;;
21550;SDS011;10936;49.836;7.078;2022-11-15T11:07:24;3.57;;;2.20;;
21550;SDS011;10936;49.836;7.078;2022-11-15T11:09:58;3.60;;;2.40;;
21550;SDS011;10936;49.836;7.078;2022-11-15T11:12:28;2.23;;;1.80;;
21550;SDS011;10936;49.836;7.078;2022-11-15T11:14:56;2.63;;;2.00;;
21550;SDS011;10936;49.836;7.078;2022-11-15T11:29:19;3.97;;;2.40;;
21550;SDS011;10936;49.836;7.078;2022-11-15T11:34:43;3.20;;;2.07;;
21550;SDS011;10936;49.836;7.078;2022-11-15T11:45:19;2.83;;;2.37;;
21550;SDS011;10936;49.836;7.078;2022-11-15T11:51:01;3.40;;;2.47;;
21550;SDS011;10936;49.836;7.078;2022-11-15T11:54:00;2.77;;;1.90;;
21550;SDS011;10936;49.836;7.078;2022-11-15T11:56:35;2.60;;;2.10;;
21550;SDS011;10936;49.836;7.078;2022-11-15T12:01:53;3.33;;;1.97;;
21550;SDS011;10936;49.836;7.078;2022-11-15T12:07:11;2.03;;;1.77;;
21550;SDS011;10936;49.836;7.078;2022-11-15T12:09:51;2.27;;;2.03;;
21550;SDS011;10936;49.836;7.078;2022-11-15T12:12:27;2.27;;;1.77;;
21550;SDS011;10936;49.836;7.078;2022-11-15T12:15:04;2.07;;;1.63;;
21550;SDS011;10936;49.836;7.078;2022-11-15T12:17:35;2.20;;;1.90;;
21550;SDS011;10936;49.836;7.078;2022-11-15T12:20:05;2.43;;;1.90;;
21550;SDS011;10936;49.836;7.078;2022-11-15T12:22:45;2.00;;;1.73;;
21550;SDS011;10936;49.836;7.078;2022-11-15T12:30:43;2.03;;;1.83;;
21550;SDS011;10936;49.836;7.078;2022-11-15T12:36:04;3.50;;;2.30;;
21550;SDS011;10936;49.836;7.078;2022-11-15T12:38:53;2.63;;;1.90;;
21550;SDS011;10936;49.836;7.078;2022-11-15T12:43:54;2.27;;;1.80;;
21550;SDS011;10936;49.836;7.078;2022-11-15T12:48:51;2.87;;;1.90;;
21550;SDS011;10936;49.836;7.078;2022-11-15T12:51:22;2.93;;;2.13;;
21550;SDS011;10936;49.836;7.078;2022-11-15T13:02:20;2.83;;;1.93;;
21550;SDS011;10936;49.836;7.078;2022-11-15T13:04:52;2.53;;;1.70;;
21550;SDS011;10936;49.836;7.078;2022-11-15T13:10:00;3.23;;;1.90;;
21550;SDS011;10936;49.836;7.078;2022-11-15T13:17:43;2.33;;;1.80;;
21550;SDS011;10936;49.836;7.078;2022-11-15T13:22:45;3.57;;;1.60;;
21550;SDS011;10936;49.836;7.078;2022-11-15T13:30:40;4.63;;;2.00;;
21550;SDS011;10936;49.836;7.078;2022-11-15T13:35:52;2.43;;;1.40;;
21550;SDS011;10936;49.836;7.078;2022-11-15T13:38:25;2.60;;;1.70;;
21550;SDS011;10936;49.836;7.078;2022-11-15T13:40:55;3.20;;;2.03;;
21550;SDS011;10936;49.836;7.078;2022-11-15T13:46:04;2.57;;;1.60;;
21550;SDS011;10936;49.836;7.078;2022-11-15T13:48:35;2.13;;;1.50;;
21550;SDS011;10936;49.836;7.078;2022-11-15T13:51:04;2.50;;;1.90;;
21550;SDS011;10936;49.836;7.078;2022-11-15T13:53:58;2.57;;;1.77;;
21550;SDS011;10936;49.836;7.078;2022-11-15T13:56:33;2.43;;;1.60;;
21550;SDS011;10936;49.836;7.078;2022-11-15T13:58:59;3.57;;;1.40;;
21550;SDS011;10936;49.836;7.078;2022-11-15T14:01:27;2.67;;;1.67;;
21550;SDS011;10936;49.836;7.078;2022-11-15T14:03:56;3.27;;;1.57;;
21550;SDS011;10936;49.836;7.078;2022-11-15T14:06:28;2.33;;;1.60;;
21550;SDS011;10936;49.836;7.078;2022-11-15T14:11:24;3.30;;;1.90;;
21550;SDS011;10936;49.836;7.078;2022-11-15T14:14:04;2.57;;;1.97;;
21550;SDS011;10936;49.836;7.078;2022-11-15T14:16:42;1.93;;;1.50;;
21550;SDS011;10936;49.836;7.078;2022-11-15T14:19:11;2.30;;;1.63;;
21550;SDS011;10936;49.836;7.078;2022-11-15T14:24:47;1.73;;;1.50;;
21550;SDS011;10936;49.836;7.078;2022-11-15T14:27:31;2.90;;;1.67;;
21550;SDS011;10936;49.836;7.078;2022-11-15T14:29:57;1.73;;;1.53;;
21550;SDS011;10936;49.836;7.078;2022-11-15T14:34:54;2.73;;;1.63;;
21550;SDS011;10936;49.836;7.078;2022-11-15T14:37:23;1.70;;;1.60;;
21550;SDS011;10936;49.836;7.078;2022-11-15T14:39:52;1.60;;;1.50;;
21550;SDS011;10936;49.836;7.078;2022-11-15T14:42:19;3.07;;;1.83;;
21550;SDS011;10936;49.836;7.078;2022-11-15T14:44:46;2.50;;;1.67;;
21550;SDS011;10936;49.836;7.078;2022-11-15T14:47:12;2.03;;;1.63;;
21550;SDS011;10936;49.836;7.078;2022-11-15T14:49:38;3.17;;;1.60;;
21550;SDS011;10936;49.836;7.078;2022-11-15T14:52:19;2.47;;;1.40;;
21550;SDS011;10936;49.836;7.078;2022-11-15T14:54:50;1.67;;;1.50;;
21550;SDS011;10936;49.836;7.078;2022-11-15T14:57:16;2.50;;;1.50;;
21550;SDS011;10936;49.836;7.078;2022-11-15T14:59:41;2.87;;;1.50;;
21550;SDS011;10936;49.836;7.078;2022-11-15T15:02:09;1.80;;;1.30;;
21550;SDS011;10936;49.836;7.078;2022-11-15T15:04:40;1.60;;;1.40;;
21550;SDS011;10936;49.836;7.078;2022-11-15T15:07:06;1.73;;;1.47;;
21550;SDS011;10936;49.836;7.078;2022-11-15T15:09:31;1.60;;;1.50;;
21550;SDS011;10936;49.836;7.078;2022-11-15T15:11:57;2.17;;;1.73;;
21550;SDS011;10936;49.836;7.078;2022-11-15T15:14:23;1.70;;;1.40;;
21550;SDS011;10936;49.836;7.078;2022-11-15T15:16:48;2.00;;;1.47;;
21550;SDS011;10936;49.836;7.078;2022-11-15T15:19:14;2.13;;;1.60;;
21550;SDS011;10936;49.836;7.078;2022-11-15T15:21:39;1.73;;;1.50;;
21550;SDS011;10936;49.836;7.078;2022-11-15T15:24:05;1.60;;;1.27;;
21550;SDS011;10936;49.836;7.078;2022-11-15T15:26:30;1.83;;;1.37;;
21550;SDS011;10936;49.836;7.078;2022-11-15T15:29:01;2.50;;;1.60;;
21550;SDS011;10936;49.836;7.078;2022-11-15T15:31:26;1.83;;;1.40;;
21550;SDS011;10936;49.836;7.078;2022-11-15T15:33:52;1.40;;;1.30;;
21550;SDS011;10936;49.836;7.078;2022-11-15T15:36:18;1.80;;;1.60;;
21550;SDS011;10936;49.836;7.078;2022-11-15T15:38:44;2.07;;;1.50;;
21550;SDS011;10936;49.836;7.078;2022-11-15T15:41:11;1.47;;;1.30;;
21550;SDS011;10936;49.836;7.078;2022-11-15T15:43:38;1.73;;;1.40;;
21550;SDS011;10936;49.836;7.078;2022-11-15T15:46:04;1.87;;;1.40;;
21550;SDS011;10936;49.836;7.078;2022-11-15T15:48:32;2.60;;;1.30;;
21550;SDS011;10936;49.836;7.078;2022-11-15T15:51:02;1.83;;;1.40;;
21550;SDS011;10936;49.836;7.078;2022-11-15T15:53:27;1.53;;;1.10;;
21550;SDS011;10936;49.836;7.078;2022-11-15T15:55:53;1.40;;;1.20;;
21550;SDS011;10936;49.836;7.078;2022-11-15T15:58:19;2.00;;;1.33;;
21550;SDS011;10936;49.836;7.078;2022-11-15T16:00:45;1.73;;;1.30;;
21550;SDS011;10936;49.836;7.078;2022-11-15T16:03:10;1.40;;;1.30;;
21550;SDS011;10936;49.836;7.078;2022-11-15T16:05:36;1.50;;;1.40;;
21550;SDS011;10936;49.836;7.078;2022-11-15T16:08:02;1.70;;;1.40;;
21550;SDS011;10936;49.836;7.078;2022-11-15T16:10:29;1.70;;;1.30;;
21550;SDS011;10936;49.836;7.078;2022-11-15T16:12:58;2.97;;;1.40;;
21550;SDS011;10936;49.836;7.078;2022-11-15T16:15:25;3.13;;;1.37;;
21550;SDS011;10936;49.836;7.078;2022-11-15T16:17:52;1.63;;;1.40;;
21550;SDS011;10936;49.836;7.078;2022-11-15T16:20:23;1.77;;;1.30;;
21550;SDS011;10936;49.836;7.078;2022-11-15T16:22:58;2.47;;;1.20;;
21550;SDS011;10936;49.836;7.078;2022-11-15T16:25:25;1.33;;;1.23;;
21550;SDS011;10936;49.836;7.078;2022-11-15T16:27:50;1.60;;;1.27;;
21550;SDS011;10936;49.836;7.078;2022-11-15T16:30:17;1.43;;;1.13;;
21550;SDS011;10936;49.836;7.078;2022-11-15T16:32:44;2.87;;;1.53;;
21550;SDS011;10936;49.836;7.078;2022-11-15T16:35:10;1.77;;;1.13;;
21550;SDS011;10936;49.836;7.078;2022-11-15T16:37:40;1.93;;;1.20;;
21550;SDS011;10936;49.836;7.078;2022-11-15T16:40:26;1.40;;;1.30;;
21550;SDS011;10936;49.836;7.078;2022-11-15T16:42:56;1.10;;;1.00;;
21550;SDS011;10936;49.836;7.078;2022-11-15T16:45:23;2.00;;;1.27;;
21550;SDS011;10936;49.836;7.078;2022-11-15T16:47:49;3.70;;;1.40;;
21550;SDS011;10936;49.836;7.078;2022-11-15T16:50:19;1.57;;;1.23;;
21550;SDS011;10936;49.836;7.078;2022-11-15T16:52:52;1.70;;;1.57;;
21550;SDS011;10936;49.836;7.078;2022-11-15T16:55:20;1.33;;;1.23;;
21550;SDS011;10936;49.836;7.078;2022-11-15T16:57:47;1.53;;;1.13;;
21550;SDS011;10936;49.836;7.078;2022-11-15T17:00:14;1.40;;;1.30;;
21550;SDS011;10936;49.836;7.078;2022-11-15T17:02:44;1.53;;;1.30;;
21550;SDS011;10936;49.836;7.078;2022-11-15T17:05:11;1.20;;;1.10;;
21550;SDS011;10936;49.836;7.078;2022-11-15T17:07:38;1.63;;;1.33;;
21550;SDS011;10936;49.836;7.078;2022-11-15T17:10:04;1.37;;;1.27;;
21550;SDS011;10936;49.836;7.078;2022-11-15T17:12:31;1.27;;;1.10;;
21550;SDS011;10936;49.836;7.078;2022-11-15T17:14:58;1.50;;;1.20;;
21550;SDS011;10936;49.836;7.078;2022-11-15T17:17:23;2.30;;;1.40;;
21550;SDS011;10936;49.836;7.078;2022-11-15T17:19:50;1.90;;;1.37;;
21550;SDS011;10936;49.836;7.078;2022-11-15T17:22:17;1.37;;;1.27;;
21550;SDS011;10936;49.836;7.078;2022-11-15T17:24:43;1.63;;;1.30;;
21550;SDS011;10936;49.836;7.078;2022-11-15T17:27:09;1.33;;;1.20;;
21550;SDS011;10936;49.836;7.078;2022-11-15T17:29:35;1.67;;;1.13;;
21550;SDS011;10936;49.836;7.078;2022-11-15T17:32:00;1.70;;;1.30;;
21550;SDS011;10936;49.836;7.078;2022-11-15T17:34:26;1.73;;;1.23;;
21550;SDS011;10936;49.836;7.078;2022-11-15T17:36:51;3.10;;;1.27;;
21550;SDS011;10936;49.836;7.078;2022-11-15T17:39:17;1.73;;;1.20;;
21550;SDS011;10936;49.836;7.078;2022-11-15T17:41:44;1.73;;;1.10;;
21550;SDS011;10936;49.836;7.078;2022-11-15T17:44:10;1.63;;;1.30;;
21550;SDS011;10936;49.836;7.078;2022-11-15T17:46:36;2.83;;;1.30;;
21550;SDS011;10936;49.836;7.078;2022-11-15T17:49:02;4.47;;;1.10;;
21550;SDS011;10936;49.836;7.078;2022-11-15T17:51:28;2.03;;;1.30;;
21550;SDS011;10936;49.836;7.078;2022-11-15T17:53:54;1.87;;;1.20;;
21550;SDS011;10936;49.836;7.078;2022-11-15T17:56:20;2.00;;;1.20;;
21550;SDS011;10936;49.836;7.078;2022-11-15T17:58:48;1.50;;;1.10;;
21550;SDS011;10936;49.836;7.078;2022-11-15T18:01:22;3.53;;;1.40;;
21550;SDS011;10936;49.836;7.078;2022-11-15T18:03:49;1.87;;;1.20;;
21550;SDS011;10936;49.836;7.078;2022-11-15T18:06:15;1.90;;;1.27;;
21550;SDS011;10936;49.836;7.078;2022-11-15T18:08:42;4.17;;;1.40;;
21550;SDS011;10936;49.836;7.078;2022-11-15T18:11:14;1.83;;;1.00;;
21550;SDS011;10936;49.836;7.078;2022-11-15T18:13:40;2.93;;;1.00;;
21550;SDS011;10936;49.836;7.078;2022-11-15T18:16:09;2.13;;;1.50;;
21550;SDS011;10936;49.836;7.078;2022-11-15T18:18:37;1.10;;;1.00;;
21550;SDS011;10936;49.836;7.078;2022-11-15T18:21:03;1.50;;;1.17;;
21550;SDS011;10936;49.836;7.078;2022-11-15T18:23:30;3.70;;;1.03;;
21550;SDS011;10936;49.836;7.078;2022-11-15T18:25:57;1.93;;;1.40;;
21550;SDS011;10936;49.836;7.078;2022-11-15T18:28:27;1.53;;;1.30;;
21550;SDS011;10936;49.836;7.078;2022-11-15T18:30:54;1.33;;;1.10;;
21550;SDS011;10936;49.836;7.078;2022-11-15T18:33:20;4.37;;;1.70;;
21550;SDS011;10936;49.836;7.078;2022-11-15T18:35:45;3.50;;;2.07;;
21550;SDS011;10936;49.836;7.078;2022-11-15T18:38:12;2.70;;;1.13;;
21550;SDS011;10936;49.836;7.078;2022-11-15T18:40:38;2.30;;;1.50;;
21550;SDS011;10936;49.836;7.078;2022-11-15T18:43:04;4.87;;;1.40;;
21550;SDS011;10936;49.836;7.078;2022-11-15T18:45:29;1.73;;;1.20;;
21550;SDS011;10936;49.836;7.078;2022-11-15T18:47:57;1.47;;;1.07;;
21550;SDS011;10936;49.836;7.078;2022-11-15T18:50:23;2.60;;;1.40;;
21550;SDS011;10936;49.836;7.078;2022-11-15T18:52:48;1.83;;;1.30;;
21550;SDS011;10936;49.836;7.078;2022-11-15T18:55:14;3.23;;;1.40;;
21550;SDS011;10936;49.836;7.078;2022-11-15T18:57:39;2.97;;;1.30;;
21550;SDS011;10936;49.836;7.078;2022-11-15T19:00:05;4.20;;;1.50;;
21550;SDS011;10936;49.836;7.078;2022-11-15T19:02:33;2.40;;;1.20;;
21550;SDS011;10936;49.836;7.078;2022-11-15T19:04:58;2.27;;;1.30;;
21550;SDS011;10936;49.836;7.078;2022-11-15T19:07:24;2.47;;;1.40;;
21550;SDS011;10936;49.836;7.078;2022-11-15T19:09:49;2.90;;;1.40;;
21550;SDS011;10936;49.836;7.078;2022-11-15T19:12:15;2.60;;;1.30;;
21550;SDS011;10936;49.836;7.078;2022-11-15T19:14:40;4.10;;;1.40;;
21550;SDS011;10936;49.836;7.078;2022-11-15T19:17:06;2.73;;;1.60;;
21550;SDS011;10936;49.836;7.078;2022-11-15T19:19:31;2.83;;;1.23;;
21550;SDS011;10936;49.836;7.078;2022-11-15T19:21:57;3.30;;;1.30;;
21550;SDS011;10936;49.836;7.078;2022-11-15T19:24:23;2.00;;;1.40;;
21550;SDS011;10936;49.836;7.078;2022-11-15T19:26:50;2.43;;;1.17;;
21550;SDS011;10936;49.836;7.078;2022-11-15T19:29:15;1.37;;;1.20;;
21550;SDS011;10936;49.836;7.078;2022-11-15T19:31:42;2.90;;;1.27;;
21550;SDS011;10936;49.836;7.078;2022-11-15T19:34:08;2.03;;;1.17;;
21550;SDS011;10936;49.836;7.078;2022-11-15T19:36:35;1.23;;;1.07;;
21550;SDS011;10936;49.836;7.078;2022-11-15T19:39:03;2.00;;;1.40;;
21550;SDS011;10936;49.836;7.078;2022-11-15T19:41:33;6.87;;;1.47;;
21550;SDS011;10936;49.836;7.078;2022-11-15T19:43:59;3.13;;;1.30;;
21550;SDS011;10936;49.836;7.078;2022-11-15T19:46:25;5.07;;;1.50;;
21550;SDS011;10936;49.836;7.078;2022-11-15T19:48:51;4.20;;;1.83;;
21550;SDS011;10936;49.836;7.078;2022-11-15T19:51:18;3.30;;;1.40;;
21550;SDS011;10936;49.836;7.078;2022-11-15T19:53:48;2.80;;;1.50;;
21550;SDS011;10936;49.836;7.078;2022-11-15T19:56:18;3.70;;;1.30;;
21550;SDS011;10936;49.836;7.078;2022-11-15T19:58:44;1.80;;;1.40;;
21550;SDS011;10936;49.836;7.078;2022-11-15T20:01:15;3.73;;;1.20;;
21550;SDS011;10936;49.836;7.078;2022-11-15T20:03:42;2.73;;;1.30;;
21550;SDS011;10936;49.836;7.078;2022-11-15T20:06:09;2.43;;;1.30;;
21550;SDS011;10936;49.836;7.078;2022-11-15T20:08:36;3.03;;;1.37;;
21550;SDS011;10936;49.836;7.078;2022-11-15T20:11:02;2.03;;;1.10;;
21550;SDS011;10936;49.836;7.078;2022-11-15T20:13:29;3.20;;;1.37;;
21550;SDS011;10936;49.836;7.078;2022-11-15T20:15:55;4.53;;;1.47;;
21550;SDS011;10936;49.836;7.078;2022-11-15T20:18:22;3.80;;;1.40;;
21550;SDS011;10936;49.836;7.078;2022-11-15T20:20:49;2.07;;;1.33;;
21550;SDS011;10936;49.836;7.078;2022-11-15T20:23:15;1.90;;;1.20;;
21550;SDS011;10936;49.836;7.078;2022-11-15T20:25:44;2.67;;;1.27;;
21550;SDS011;10936;49.836;7.078;2022-11-15T20:28:14;2.43;;;1.20;;
21550;SDS011;10936;49.836;7.078;2022-11-15T20:30:42;2.40;;;1.13;;
21550;SDS011;10936;49.836;7.078;2022-11-15T20:33:09;3.77;;;1.30;;
21550;SDS011;10936;49.836;7.078;2022-11-15T20:35:35;2.80;;;1.40;;
21550;SDS011;10936;49.836;7.078;2022-11-15T20:38:00;2.80;;;1.13;;
21550;SDS011;10936;49.836;7.078;2022-11-15T20:40:26;1.90;;;1.20;;
21550;SDS011;10936;49.836;7.078;2022-11-15T20:42:52;3.23;;;1.53;;
21550;SDS011;10936;49.836;7.078;2022-11-15T20:45:18;1.73;;;1.30;;
21550;SDS011;10936;49.836;7.078;2022-11-15T20:47:43;3.20;;;1.33;;
21550;SDS011;10936;49.836;7.078;2022-11-15T20:50:09;2.00;;;1.30;;
21550;SDS011;10936;49.836;7.078;2022-11-15T20:52:34;3.10;;;1.20;;
21550;SDS011;10936;49.836;7.078;2022-11-15T20:55:00;2.63;;;1.30;;
21550;SDS011;10936;49.836;7.078;2022-11-15T20:57:26;2.47;;;1.27;;
21550;SDS011;10936;49.836;7.078;2022-11-15T20:59:52;2.63;;;1.10;;
21550;SDS011;10936;49.836;7.078;2022-11-15T21:02:17;2.07;;;1.20;;
21550;SDS011;10936;49.836;7.078;2022-11-15T21:04:43;2.20;;;1.20;;
21550;SDS011;10936;49.836;7.078;2022-11-15T21:07:08;2.33;;;1.53;;
21550;SDS011;10936;49.836;7.078;2022-11-15T21:09:34;2.60;;;1.20;;
21550;SDS011;10936;49.836;7.078;2022-11-15T21:12:18;2.00;;;1.40;;
21550;SDS011;10936;49.836;7.078;2022-11-15T21:14:44;1.97;;;1.10;;
21550;SDS011;10936;49.836;7.078;2022-11-15T21:17:13;3.57;;;1.50;;
21550;SDS011;10936;49.836;7.078;2022-11-15T21:19:39;3.63;;;1.10;;
21550;SDS011;10936;49.836;7.078;2022-11-15T21:22:05;2.03;;;1.40;;
21550;SDS011;10936;49.836;7.078;2022-11-15T21:24:33;4.90;;;1.30;;
21550;SDS011;10936;49.836;7.078;2022-11-15T21:26:58;2.13;;;1.20;;
21550;SDS011;10936;49.836;7.078;2022-11-15T21:29:24;2.60;;;1.40;;
21550;SDS011;10936;49.836;7.078;2022-11-15T21:31:50;4.00;;;1.23;;
21550;SDS011;10936;49.836;7.078;2022-11-15T21:34:17;2.57;;;1.27;;
21550;SDS011;10936;49.836;7.078;2022-11-15T21:36:43;1.93;;;1.20;;
21550;SDS011;10936;49.836;7.078;2022-11-15T21:39:09;1.30;;;1.20;;
21550;SDS011;10936;49.836;7.078;2022-11-15T21:41:35;1.97;;;1.10;;
21550;SDS011;10936;49.836;7.078;2022-11-15T21:44:01;2.33;;;1.27;;
21550;SDS011;10936;49.836;7.078;2022-11-15T21:46:28;1.73;;;1.13;;
21550;SDS011;10936;49.836;7.078;2022-11-15T21:48:55;2.40;;;1.30;;
21550;SDS011;10936;49.836;7.078;2022-11-15T21:51:22;3.40;;;1.30;;
21550;SDS011;10936;49.836;7.078;2022-11-15T21:53:48;1.57;;;1.30;;
21550;SDS011;10936;49.836;7.078;2022-11-15T21:56:14;3.73;;;1.27;;
21550;SDS011;10936;49.836;7.078;2022-11-15T21:58:39;3.27;;;1.40;;
21550;SDS011;10936;49.836;7.078;2022-11-15T22:01:06;2.07;;;1.20;;
21550;SDS011;10936;49.836;7.078;2022-11-15T22:03:50;1.60;;;1.30;;
21550;SDS011;10936;49.836;7.078;2022-11-15T22:06:16;1.43;;;1.10;;
21550;SDS011;10936;49.836;7.078;2022-11-15T22:08:42;1.60;;;1.17;;
21550;SDS011;10936;49.836;7.078;2022-11-15T22:11:08;1.87;;;1.20;;
21550;SDS011;10936;49.836;7.078;2022-11-15T22:13:34;4.57;;;1.47;;
21550;SDS011;10936;49.836;7.078;2022-11-15T22:16:00;1.23;;;1.13;;
21550;SDS011;10936;49.836;7.078;2022-11-15T22:18:25;2.00;;;1.27;;
21550;SDS011;10936;49.836;7.078;2022-11-15T22:20:55;1.63;;;1.20;;
21550;SDS011;10936;49.836;7.078;2022-11-15T22:23:22;1.20;;;1.10;;
21550;SDS011;10936;49.836;7.078;2022-11-15T22:25:49;1.83;;;1.23;;
21550;SDS011;10936;49.836;7.078;2022-11-15T22:28:15;2.53;;;1.30;;
